Terminal Aerodrome Forecast
Issued by NWS Cleveland, OH

Home | Current Version | Previous Version | Text Only | Print | Product List | Glossary On
Versions: 1 2 3 4 5 6 7 8 9 10 11 12 13 14 15 16 17 18 19 20 21
394
FTUS41 KCLE 171359 AAA
TAFCAK
TAF AMD
KCAK 171359Z 1714/1812 17012KT 4SM -RA BR OVC015
      TEMPO 1714/1715 2SM RA BR OVC005
     FM171500 20014KT 6SM -SHRA BR BKN015
     FM171800 25012G20KT P6SM OVC025
     FM180300 27009KT 5SM BR VCSH OVC005=

USA.gov is the U.S. government's official web portal to all federal, state and local government web resources and services.